sensor_id;sensor_type;location;lat;lon;timestamp;pressure;altitude;pressure_sealevel;temperature;humidity
21129;BME280;10722;51.910;8.352;2023-12-14T00:01:02;99937.06;;;5.74;100.00
21129;BME280;10722;51.910;8.352;2023-12-14T00:03:47;99946.63;;;5.80;100.00
21129;BME280;10722;51.910;8.352;2023-12-14T00:06:32;99951.91;;;5.86;100.00
21129;BME280;10722;51.910;8.352;2023-12-14T00:09:17;99957.13;;;5.89;100.00
21129;BME280;10722;51.910;8.352;2023-12-14T00:12:02;99964.78;;;5.88;100.00
21129;BME280;10722;51.910;8.352;2023-12-14T00:14:47;99969.16;;;5.92;100.00
21129;BME280;10722;51.910;8.352;2023-12-14T00:17:32;99975.03;;;5.88;100.00
21129;BME280;10722;51.910;8.352;2023-12-14T00:20:17;99975.13;;;5.91;100.00
21129;BME280;10722;51.910;8.352;2023-12-14T00:23:02;99977.03;;;5.98;100.00
21129;BME280;10722;51.910;8.352;2023-12-14T00:25:48;99975.88;;;5.87;100.00
21129;BME280;10722;51.910;8.352;2023-12-14T00:28:33;99979.75;;;6.04;100.00
21129;BME280;10722;51.910;8.352;2023-12-14T00:31:18;99980.97;;;5.85;100.00
21129;BME280;10722;51.910;8.352;2023-12-14T00:34:03;99987.59;;;5.75;100.00
21129;BME280;10722;51.910;8.352;2023-12-14T00:36:48;99981.31;;;5.64;100.00
21129;BME280;10722;51.910;8.352;2023-12-14T00:39:33;99993.50;;;5.73;100.00
21129;BME280;10722;51.910;8.352;2023-12-14T00:42:18;99998.84;;;5.80;100.00
21129;BME280;10722;51.910;8.352;2023-12-14T00:45:04;99997.94;;;5.78;100.00
21129;BME280;10722;51.910;8.352;2023-12-14T00:47:49;99999.16;;;5.59;100.00
21129;BME280;10722;51.910;8.352;2023-12-14T00:50:34;100006.81;;;5.58;100.00
21129;BME280;10722;51.910;8.352;2023-12-14T00:53:19;100016.41;;;5.65;100.00
21129;BME280;10722;51.910;8.352;2023-12-14T00:56:06;100031.88;;;5.68;100.00
21129;BME280;10722;51.910;8.352;2023-12-14T00:58:52;100031.28;;;5.45;100.00
21129;BME280;10722;51.910;8.352;2023-12-14T01:01:37;100031.56;;;5.56;100.00
21129;BME280;10722;51.910;8.352;2023-12-14T01:04:23;100047.25;;;5.67;100.00
21129;BME280;10722;51.910;8.352;2023-12-14T01:07:08;100036.78;;;5.59;100.00
21129;BME280;10722;51.910;8.352;2023-12-14T01:09:53;100039.88;;;5.47;100.00
21129;BME280;10722;51.910;8.352;2023-12-14T01:12:40;100029.31;;;5.36;100.00
21129;BME280;10722;51.910;8.352;2023-12-14T01:15:25;100031.25;;;5.44;100.00
21129;BME280;10722;51.910;8.352;2023-12-14T01:18:10;100046.75;;;5.48;100.00
21129;BME280;10722;51.910;8.352;2023-12-14T01:20:56;100056.97;;;5.47;100.00
21129;BME280;10722;51.910;8.352;2023-12-14T01:23:41;100060.06;;;5.35;100.00
21129;BME280;10722;51.910;8.352;2023-12-14T01:26:26;100069.97;;;5.53;100.00
21129;BME280;10722;51.910;8.352;2023-12-14T01:29:11;100064.69;;;5.47;100.00
21129;BME280;10722;51.910;8.352;2023-12-14T01:31:57;100059.88;;;5.59;100.00
21129;BME280;10722;51.910;8.352;2023-12-14T01:34:42;100068.81;;;5.42;100.00
21129;BME280;10722;51.910;8.352;2023-12-14T01:37:27;100069.13;;;5.54;100.00
21129;BME280;10722;51.910;8.352;2023-12-14T01:40:13;100081.47;;;5.35;100.00
21129;BME280;10722;51.910;8.352;2023-12-14T01:43:08;100090.34;;;5.47;100.00
21129;BME280;10722;51.910;8.352;2023-12-14T01:45:53;100082.16;;;5.30;100.00
21129;BME280;10722;51.910;8.352;2023-12-14T01:48:40;100083.41;;;5.14;100.00
21129;BME280;10722;51.910;8.352;2023-12-14T01:51:25;100103.66;;;5.35;100.00
21129;BME280;10722;51.910;8.352;2023-12-14T01:54:11;100115.94;;;5.45;100.00
21129;BME280;10722;51.910;8.352;2023-12-14T01:56:55;100130.06;;;5.61;100.00
21129;BME280;10722;51.910;8.352;2023-12-14T01:59:40;100134.53;;;5.68;100.00
21129;BME280;10722;51.910;8.352;2023-12-14T02:02:25;100129.31;;;5.65;100.00
21129;BME280;10722;51.910;8.352;2023-12-14T02:05:11;100147.44;;;5.71;100.00
21129;BME280;10722;51.910;8.352;2023-12-14T02:07:56;100132.97;;;5.73;100.00
21129;BME280;10722;51.910;8.352;2023-12-14T02:10:41;100142.16;;;5.65;100.00
21129;BME280;10722;51.910;8.352;2023-12-14T02:13:27;100145.31;;;5.55;100.00
21129;BME280;10722;51.910;8.352;2023-12-14T02:16:13;100151.31;;;5.57;100.00
21129;BME280;10722;51.910;8.352;2023-12-14T02:18:58;100146.63;;;5.42;100.00
21129;BME280;10722;51.910;8.352;2023-12-14T02:21:44;100159.22;;;5.34;100.00
21129;BME280;10722;51.910;8.352;2023-12-14T02:24:29;100158.78;;;5.48;100.00
21129;BME280;10722;51.910;8.352;2023-12-14T02:27:14;100154.28;;;5.40;100.00
21129;BME280;10722;51.910;8.352;2023-12-14T02:29:59;100159.81;;;5.24;100.00
21129;BME280;10722;51.910;8.352;2023-12-14T02:32:45;100165.66;;;5.20;100.00
21129;BME280;10722;51.910;8.352;2023-12-14T02:35:30;100168.97;;;5.17;100.00
21129;BME280;10722;51.910;8.352;2023-12-14T02:38:15;100181.88;;;5.19;100.00
21129;BME280;10722;51.910;8.352;2023-12-14T02:41:01;100186.56;;;5.05;100.00
21129;BME280;10722;51.910;8.352;2023-12-14T02:43:46;100190.41;;;4.91;100.00
21129;BME280;10722;51.910;8.352;2023-12-14T02:46:31;100189.13;;;4.78;100.00
21129;BME280;10722;51.910;8.352;2023-12-14T02:49:16;100196.88;;;4.80;100.00
21129;BME280;10722;51.910;8.352;2023-12-14T02:52:01;100201.31;;;4.85;100.00
21129;BME280;10722;51.910;8.352;2023-12-14T02:54:46;100207.41;;;4.89;100.00
21129;BME280;10722;51.910;8.352;2023-12-14T02:57:31;100220.56;;;5.00;100.00
21129;BME280;10722;51.910;8.352;2023-12-14T03:00:17;100215.34;;;4.97;100.00
21129;BME280;10722;51.910;8.352;2023-12-14T03:03:02;100219.28;;;5.12;100.00
21129;BME280;10722;51.910;8.352;2023-12-14T03:05:47;100219.66;;;4.98;100.00
21129;BME280;10722;51.910;8.352;2023-12-14T03:08:32;100214.44;;;4.94;100.00
21129;BME280;10722;51.910;8.352;2023-12-14T03:11:21;100223.50;;;5.12;100.00
21129;BME280;10722;51.910;8.352;2023-12-14T03:14:07;100221.03;;;5.15;100.00
21129;BME280;10722;51.910;8.352;2023-12-14T03:16:52;100209.50;;;5.01;100.00
21129;BME280;10722;51.910;8.352;2023-12-14T03:19:39;100224.50;;;4.88;100.00
21129;BME280;10722;51.910;8.352;2023-12-14T03:22:24;100226.53;;;4.99;100.00
21129;BME280;10722;51.910;8.352;2023-12-14T03:25:09;100230.09;;;5.04;100.00
21129;BME280;10722;51.910;8.352;2023-12-14T03:27:54;100224.75;;;4.96;100.00
21129;BME280;10722;51.910;8.352;2023-12-14T03:30:39;100238.34;;;4.95;100.00
21129;BME280;10722;51.910;8.352;2023-12-14T03:33:24;100241.69;;;5.18;100.00
21129;BME280;10722;51.910;8.352;2023-12-14T03:36:10;100243.34;;;5.17;100.00
21129;BME280;10722;51.910;8.352;2023-12-14T03:38:55;100247.53;;;5.14;100.00
21129;BME280;10722;51.910;8.352;2023-12-14T03:41:40;100253.09;;;5.28;100.00
21129;BME280;10722;51.910;8.352;2023-12-14T03:44:25;100254.78;;;5.27;100.00
21129;BME280;10722;51.910;8.352;2023-12-14T03:47:10;100258.72;;;5.16;100.00
21129;BME280;10722;51.910;8.352;2023-12-14T03:49:55;100262.53;;;5.02;100.00
21129;BME280;10722;51.910;8.352;2023-12-14T03:52:40;100263.03;;;4.91;100.00
21129;BME280;10722;51.910;8.352;2023-12-14T03:55:26;100269.88;;;4.92;100.00
21129;BME280;10722;51.910;8.352;2023-12-14T03:58:11;100288.34;;;5.08;100.00
21129;BME280;10722;51.910;8.352;2023-12-14T04:00:56;100286.47;;;5.02;100.00
21129;BME280;10722;51.910;8.352;2023-12-14T04:03:41;100300.66;;;5.18;100.00
21129;BME280;10722;51.910;8.352;2023-12-14T04:06:26;100290.81;;;5.05;100.00
21129;BME280;10722;51.910;8.352;2023-12-14T04:09:11;100295.09;;;5.04;100.00
21129;BME280;10722;51.910;8.352;2023-12-14T04:11:56;100298.16;;;4.94;100.00
21129;BME280;10722;51.910;8.352;2023-12-14T04:14:41;100306.69;;;4.93;100.00
21129;BME280;10722;51.910;8.352;2023-12-14T04:17:26;100307.00;;;4.78;100.00
21129;BME280;10722;51.910;8.352;2023-12-14T04:20:13;100321.50;;;5.02;100.00
21129;BME280;10722;51.910;8.352;2023-12-14T04:22:58;100328.06;;;4.93;100.00
21129;BME280;10722;51.910;8.352;2023-12-14T04:25:44;100342.50;;;4.91;100.00
21129;BME280;10722;51.910;8.352;2023-12-14T04:28:29;100358.09;;;4.98;100.00
21129;BME280;10722;51.910;8.352;2023-12-14T04:31:14;100356.03;;;4.87;100.00
21129;BME280;10722;51.910;8.352;2023-12-14T04:33:59;100356.91;;;4.88;100.00
21129;BME280;10722;51.910;8.352;2023-12-14T04:36:45;100354.16;;;4.82;100.00
21129;BME280;10722;51.910;8.352;2023-12-14T04:39:30;100363.56;;;4.83;100.00
21129;BME280;10722;51.910;8.352;2023-12-14T04:42:15;100372.31;;;4.89;100.00
21129;BME280;10722;51.910;8.352;2023-12-14T04:45:01;100368.63;;;4.81;100.00
21129;BME280;10722;51.910;8.352;2023-12-14T04:47:46;100369.06;;;4.93;100.00
21129;BME280;10722;51.910;8.352;2023-12-14T04:50:31;100374.91;;;4.89;100.00
21129;BME280;10722;51.910;8.352;2023-12-14T04:53:16;100378.53;;;4.70;100.00
21129;BME280;10722;51.910;8.352;2023-12-14T04:56:01;100373.00;;;4.60;100.00
21129;BME280;10722;51.910;8.352;2023-12-14T04:58:47;100375.94;;;4.46;100.00
21129;BME280;10722;51.910;8.352;2023-12-14T05:01:32;100381.28;;;4.53;100.00
21129;BME280;10722;51.910;8.352;2023-12-14T05:04:18;100394.66;;;4.68;100.00
21129;BME280;10722;51.910;8.352;2023-12-14T05:07:03;100398.69;;;4.85;100.00
21129;BME280;10722;51.910;8.352;2023-12-14T05:09:49;100397.41;;;4.98;100.00
21129;BME280;10722;51.910;8.352;2023-12-14T05:12:34;100402.09;;;4.84;100.00
21129;BME280;10722;51.910;8.352;2023-12-14T05:15:20;100407.56;;;4.95;100.00
21129;BME280;10722;51.910;8.352;2023-12-14T05:18:05;100412.25;;;4.83;100.00
21129;BME280;10722;51.910;8.352;2023-12-14T05:20:50;100412.59;;;4.92;100.00
21129;BME280;10722;51.910;8.352;2023-12-14T05:23:36;100414.66;;;5.02;100.00
21129;BME280;10722;51.910;8.352;2023-12-14T05:26:21;100424.34;;;5.11;100.00
21129;BME280;10722;51.910;8.352;2023-12-14T05:29:06;100416.19;;;4.97;100.00
21129;BME280;10722;51.910;8.352;2023-12-14T05:31:51;100412.53;;;4.90;100.00
21129;BME280;10722;51.910;8.352;2023-12-14T05:34:37;100407.06;;;4.81;100.00
21129;BME280;10722;51.910;8.352;2023-12-14T05:37:21;100407.91;;;4.56;100.00
21129;BME280;10722;51.910;8.352;2023-12-14T05:40:07;100422.63;;;4.62;100.00
21129;BME280;10722;51.910;8.352;2023-12-14T05:42:52;100431.16;;;4.85;100.00
21129;BME280;10722;51.910;8.352;2023-12-14T05:45:37;100436.38;;;4.88;100.00
21129;BME280;10722;51.910;8.352;2023-12-14T05:48:22;100433.91;;;4.91;100.00
21129;BME280;10722;51.910;8.352;2023-12-14T05:51:08;100439.38;;;5.00;100.00
21129;BME280;10722;51.910;8.352;2023-12-14T05:53:52;100446.91;;;4.96;100.00
21129;BME280;10722;51.910;8.352;2023-12-14T05:56:37;100447.88;;;4.75;100.00
21129;BME280;10722;51.910;8.352;2023-12-14T05:59:24;100448.44;;;4.90;100.00
21129;BME280;10722;51.910;8.352;2023-12-14T06:02:09;100446.06;;;4.72;100.00
21129;BME280;10722;51.910;8.352;2023-12-14T06:04:54;100453.63;;;4.69;100.00
21129;BME280;10722;51.910;8.352;2023-12-14T06:07:40;100453.19;;;4.57;100.00
21129;BME280;10722;51.910;8.352;2023-12-14T06:10:25;100468.44;;;4.77;100.00
21129;BME280;10722;51.910;8.352;2023-12-14T06:13:10;100473.50;;;4.53;100.00
21129;BME280;10722;51.910;8.352;2023-12-14T06:15:55;100473.88;;;4.62;100.00
21129;BME280;10722;51.910;8.352;2023-12-14T06:18:41;100474.09;;;4.68;100.00
21129;BME280;10722;51.910;8.352;2023-12-14T06:21:26;100486.41;;;4.78;100.00
21129;BME280;10722;51.910;8.352;2023-12-14T06:24:11;100488.97;;;4.78;100.00
21129;BME280;10722;51.910;8.352;2023-12-14T06:26:56;100506.91;;;4.78;100.00
21129;BME280;10722;51.910;8.352;2023-12-14T06:29:41;100502.44;;;4.72;100.00
21129;BME280;10722;51.910;8.352;2023-12-14T06:32:26;100499.72;;;4.68;100.00
21129;BME280;10722;51.910;8.352;2023-12-14T06:35:11;100506.25;;;4.60;100.00
21129;BME280;10722;51.910;8.352;2023-12-14T06:37:57;100510.53;;;4.38;100.00
21129;BME280;10722;51.910;8.352;2023-12-14T06:40:42;100513.50;;;4.26;100.00
21129;BME280;10722;51.910;8.352;2023-12-14T06:43:27;100517.66;;;4.24;100.00
21129;BME280;10722;51.910;8.352;2023-12-14T06:46:12;100530.97;;;4.16;100.00
21129;BME280;10722;51.910;8.352;2023-12-14T06:49:00;100540.41;;;4.38;100.00
21129;BME280;10722;51.910;8.352;2023-12-14T06:51:45;100546.38;;;4.38;100.00
21129;BME280;10722;51.910;8.352;2023-12-14T06:54:30;100545.88;;;4.47;100.00
21129;BME280;10722;51.910;8.352;2023-12-14T06:57:15;100549.63;;;4.55;100.00
21129;BME280;10722;51.910;8.352;2023-12-14T07:00:00;100556.63;;;4.59;100.00
21129;BME280;10722;51.910;8.352;2023-12-14T07:02:45;100554.69;;;4.54;100.00
21129;BME280;10722;51.910;8.352;2023-12-14T07:05:30;100554.97;;;4.61;100.00
21129;BME280;10722;51.910;8.352;2023-12-14T07:08:16;100571.16;;;4.60;100.00
21129;BME280;10722;51.910;8.352;2023-12-14T07:11:02;100569.13;;;4.52;100.00
21129;BME280;10722;51.910;8.352;2023-12-14T07:13:47;100564.31;;;4.38;100.00
21129;BME280;10722;51.910;8.352;2023-12-14T07:16:32;100582.91;;;4.55;100.00
21129;BME280;10722;51.910;8.352;2023-12-14T07:19:17;100590.84;;;4.61;100.00
21129;BME280;10722;51.910;8.352;2023-12-14T07:22:02;100605.69;;;4.70;100.00
21129;BME280;10722;51.910;8.352;2023-12-14T07:24:47;100601.22;;;4.64;100.00
21129;BME280;10722;51.910;8.352;2023-12-14T07:27:41;100611.72;;;4.70;100.00
21129;BME280;10722;51.910;8.352;2023-12-14T07:30:26;100611.84;;;4.74;100.00
21129;BME280;10722;51.910;8.352;2023-12-14T07:33:11;100615.41;;;4.77;100.00
21129;BME280;10722;51.910;8.352;2023-12-14T07:35:57;100611.72;;;4.70;100.00
21129;BME280;10722;51.910;8.352;2023-12-14T07:38:42;100609.69;;;4.62;100.00
21129;BME280;10722;51.910;8.352;2023-12-14T07:41:26;100621.16;;;4.71;100.00
21129;BME280;10722;51.910;8.352;2023-12-14T07:44:11;100612.47;;;4.68;100.00
21129;BME280;10722;51.910;8.352;2023-12-14T07:47:00;100622.25;;;4.78;100.00
21129;BME280;10722;51.910;8.352;2023-12-14T07:49:45;100617.84;;;4.74;100.00
21129;BME280;10722;51.910;8.352;2023-12-14T07:52:31;100626.47;;;4.76;100.00
21129;BME280;10722;51.910;8.352;2023-12-14T07:55:16;100608.22;;;4.47;100.00
21129;BME280;10722;51.910;8.352;2023-12-14T07:58:01;100621.03;;;4.47;100.00
21129;BME280;10722;51.910;8.352;2023-12-14T08:00:46;100644.53;;;4.58;100.00
21129;BME280;10722;51.910;8.352;2023-12-14T08:03:31;100655.22;;;4.69;100.00
21129;BME280;10722;51.910;8.352;2023-12-14T08:06:17;100650.81;;;4.65;100.00
21129;BME280;10722;51.910;8.352;2023-12-14T08:09:02;100659.47;;;4.47;100.00
21129;BME280;10722;51.910;8.352;2023-12-14T08:11:48;100672.47;;;4.52;100.00
21129;BME280;10722;51.910;8.352;2023-12-14T08:14:33;100676.72;;;4.52;100.00
21129;BME280;10722;51.910;8.352;2023-12-14T08:17:19;100686.16;;;4.53;100.00
21129;BME280;10722;51.910;8.352;2023-12-14T08:20:05;100692.34;;;4.58;100.00
21129;BME280;10722;51.910;8.352;2023-12-14T08:22:50;100700.72;;;4.54;100.00
21129;BME280;10722;51.910;8.352;2023-12-14T08:25:35;100713.91;;;4.63;100.00
21129;BME280;10722;51.910;8.352;2023-12-14T08:28:20;100717.72;;;4.72;100.00
21129;BME280;10722;51.910;8.352;2023-12-14T08:31:05;100720.16;;;4.69;100.00
21129;BME280;10722;51.910;8.352;2023-12-14T08:33:50;100719.53;;;4.54;100.00
21129;BME280;10722;51.910;8.352;2023-12-14T08:36:36;100722.34;;;4.60;100.00
21129;BME280;10722;51.910;8.352;2023-12-14T08:39:21;100712.09;;;4.39;100.00
21129;BME280;10722;51.910;8.352;2023-12-14T08:42:06;100714.22;;;4.49;100.00
21129;BME280;10722;51.910;8.352;2023-12-14T08:44:51;100720.66;;;4.40;100.00
21129;BME280;10722;51.910;8.352;2023-12-14T08:47:36;100733.34;;;4.37;100.00
21129;BME280;10722;51.910;8.352;2023-12-14T08:50:21;100732.16;;;4.30;100.00
21129;BME280;10722;51.910;8.352;2023-12-14T08:53:08;100728.81;;;4.31;100.00
21129;BME280;10722;51.910;8.352;2023-12-14T08:55:53;100744.81;;;4.46;100.00
21129;BME280;10722;51.910;8.352;2023-12-14T08:58:38;100745.81;;;4.29;100.00
21129;BME280;10722;51.910;8.352;2023-12-14T09:01:23;100755.34;;;4.33;100.00
21129;BME280;10722;51.910;8.352;2023-12-14T09:04:09;100759.25;;;4.25;100.00
21129;BME280;10722;51.910;8.352;2023-12-14T09:06:54;100773.56;;;4.39;100.00
21129;BME280;10722;51.910;8.352;2023-12-14T09:09:39;100785.94;;;4.49;100.00
21129;BME280;10722;51.910;8.352;2023-12-14T09:12:25;100785.94;;;4.49;100.00
21129;BME280;10722;51.910;8.352;2023-12-14T09:15:10;100800.09;;;4.61;100.00
21129;BME280;10722;51.910;8.352;2023-12-14T09:17:55;100799.22;;;4.60;100.00
21129;BME280;10722;51.910;8.352;2023-12-14T09:20:43;100798.53;;;4.64;100.00
21129;BME280;10722;51.910;8.352;2023-12-14T09:23:27;100797.66;;;4.64;100.00
21129;BME280;10722;51.910;8.352;2023-12-14T09:26:14;100793.97;;;4.38;100.00
21129;BME280;10722;51.910;8.352;2023-12-14T09:28:59;100800.09;;;4.61;100.00
21129;BME280;10722;51.910;8.352;2023-12-14T09:31:45;100809.81;;;4.68;100.00
21129;BME280;10722;51.910;8.352;2023-12-14T09:34:31;100813.44;;;4.73;100.00
21129;BME280;10722;51.910;8.352;2023-12-14T09:37:16;100818.13;;;4.62;100.00
21129;BME280;10722;51.910;8.352;2023-12-14T09:40:01;100818.38;;;4.68;100.00
21129;BME280;10722;51.910;8.352;2023-12-14T09:42:46;100817.50;;;4.68;100.00
21129;BME280;10722;51.910;8.352;2023-12-14T09:45:31;100828.81;;;4.73;100.00
21129;BME280;10722;51.910;8.352;2023-12-14T09:48:16;100831.94;;;4.66;100.00
21129;BME280;10722;51.910;8.352;2023-12-14T09:51:01;100839.81;;;4.70;100.00
21129;BME280;10722;51.910;8.352;2023-12-14T09:53:47;100855.78;;;4.84;100.00
21129;BME280;10722;51.910;8.352;2023-12-14T09:56:32;100859.88;;;4.81;100.00
21129;BME280;10722;51.910;8.352;2023-12-14T09:59:17;100869.53;;;4.86;100.00
21129;BME280;10722;51.910;8.352;2023-12-14T10:02:12;100872.91;;;4.85;100.00
21129;BME280;10722;51.910;8.352;2023-12-14T10:04:57;100881.00;;;4.94;100.00
21129;BME280;10722;51.910;8.352;2023-12-14T10:07:43;100880.94;;;4.93;100.00
21129;BME280;10722;51.910;8.352;2023-12-14T10:10:28;100886.94;;;4.93;100.00
21129;BME280;10722;51.910;8.352;2023-12-14T10:13:14;100890.28;;;4.92;100.00
21129;BME280;10722;51.910;8.352;2023-12-14T10:16:01;100889.88;;;5.03;100.00
21129;BME280;10722;51.910;8.352;2023-12-14T10:18:46;100893.31;;;5.03;100.00
21129;BME280;10722;51.910;8.352;2023-12-14T10:21:32;100888.81;;;4.98;100.00
21129;BME280;10722;51.910;8.352;2023-12-14T10:24:17;100884.84;;;5.04;100.00
21129;BME280;10722;51.910;8.352;2023-12-14T10:27:08;100890.97;;;5.08;100.00
21129;BME280;10722;51.910;8.352;2023-12-14T10:29:53;100887.69;;;5.12;100.00
21129;BME280;10722;51.910;8.352;2023-12-14T10:32:38;100875.59;;;5.08;99.57
21129;BME280;10722;51.910;8.352;2023-12-14T10:35:23;100879.72;;;5.04;99.28
21129;BME280;10722;51.910;8.352;2023-12-14T10:38:08;100882.56;;;5.12;98.82
21129;BME280;10722;51.910;8.352;2023-12-14T10:40:55;100880.47;;;5.02;98.38
21129;BME280;10722;51.910;8.352;2023-12-14T10:43:43;100873.44;;;4.98;98.38
21129;BME280;10722;51.910;8.352;2023-12-14T10:46:36;100878.16;;;5.08;98.47
21129;BME280;10722;51.910;8.352;2023-12-14T10:49:24;100878.06;;;5.06;98.18
21129;BME280;10722;51.910;8.352;2023-12-14T10:52:10;100885.34;;;5.16;98.20
21129;BME280;10722;51.910;8.352;2023-12-14T10:55:01;100885.63;;;5.03;97.72
21129;BME280;10722;51.910;8.352;2023-12-14T10:57:47;100888.59;;;5.12;98.17
21129;BME280;10722;51.910;8.352;2023-12-14T11:00:35;100895.47;;;5.13;98.20
21129;BME280;10722;51.910;8.352;2023-12-14T11:03:21;100901.97;;;5.26;98.12
21129;BME280;10722;51.910;8.352;2023-12-14T11:09:10;100910.63;;;5.28;98.17
21129;BME280;10722;51.910;8.352;2023-12-14T11:11:57;100913.34;;;5.12;97.63
21129;BME280;10722;51.910;8.352;2023-12-14T11:14:42;100916.19;;;5.18;97.67
21129;BME280;10722;51.910;8.352;2023-12-14T11:17:27;100912.59;;;5.14;97.49
21129;BME280;10722;51.910;8.352;2023-12-14T11:20:24;100917.47;;;5.08;97.48
21129;BME280;10722;51.910;8.352;2023-12-14T11:26:04;100944.13;;;5.12;97.63
21129;BME280;10722;51.910;8.352;2023-12-14T11:28:50;100914.19;;;4.91;96.68
21129;BME280;10722;51.910;8.352;2023-12-14T11:31:36;100922.47;;;5.05;96.79
21129;BME280;10722;51.910;8.352;2023-12-14T11:34:24;100922.94;;;5.16;96.21
21129;BME280;10722;51.910;8.352;2023-12-14T11:37:10;100927.38;;;5.20;96.71
21129;BME280;10722;51.910;8.352;2023-12-14T11:39:55;100937.16;;;5.29;96.79
21129;BME280;10722;51.910;8.352;2023-12-14T11:42:41;100938.94;;;5.30;96.63
21129;BME280;10722;51.910;8.352;2023-12-14T11:45:26;100946.19;;;5.40;96.50
21129;BME280;10722;51.910;8.352;2023-12-14T11:48:12;100926.41;;;5.37;96.10
21129;BME280;10722;51.910;8.352;2023-12-14T11:50:58;100935.28;;;5.46;95.77
21129;BME280;10722;51.910;8.352;2023-12-14T11:53:47;100936.97;;;5.45;95.58
21129;BME280;10722;51.910;8.352;2023-12-14T11:56:34;100941.06;;;5.61;95.19
21129;BME280;10722;51.910;8.352;2023-12-14T11:59:21;100919.50;;;5.57;94.80
21129;BME280;10722;51.910;8.352;2023-12-14T12:02:06;100918.22;;;5.67;94.52
21129;BME280;10722;51.910;8.352;2023-12-14T12:04:52;100908.63;;;5.63;94.00
21129;BME280;10722;51.910;8.352;2023-12-14T12:07:37;100916.59;;;5.69;94.09
21129;BME280;10722;51.910;8.352;2023-12-14T12:10:23;100929.16;;;5.84;93.81
21129;BME280;10722;51.910;8.352;2023-12-14T12:13:14;100933.25;;;6.00;93.55
21129;BME280;10722;51.910;8.352;2023-12-14T12:15:59;100938.38;;;6.00;93.37
21129;BME280;10722;51.910;8.352;2023-12-14T12:18:44;100924.84;;;5.83;92.87
21129;BME280;10722;51.910;8.352;2023-12-14T12:21:30;100911.53;;;5.50;92.44
21129;BME280;10722;51.910;8.352;2023-12-14T12:24:15;100924.09;;;5.65;93.16
21129;BME280;10722;51.910;8.352;2023-12-14T12:27:11;100931.22;;;5.51;93.05
21129;BME280;10722;51.910;8.352;2023-12-14T12:29:56;100945.63;;;5.68;93.63
21129;BME280;10722;51.910;8.352;2023-12-14T12:32:41;100953.56;;;5.74;93.61
21129;BME280;10722;51.910;8.352;2023-12-14T12:35:27;100946.81;;;5.76;93.43
21129;BME280;10722;51.910;8.352;2023-12-14T12:38:15;100948.88;;;5.85;93.42
21129;BME280;10722;51.910;8.352;2023-12-14T12:41:01;100943.94;;;5.90;92.72
21129;BME280;10722;51.910;8.352;2023-12-14T12:43:46;100933.03;;;5.74;92.72
21129;BME280;10722;51.910;8.352;2023-12-14T12:46:32;100941.44;;;6.12;92.83
21129;BME280;10722;51.910;8.352;2023-12-14T12:49:18;100916.03;;;6.42;91.55
21129;BME280;10722;51.910;8.352;2023-12-14T12:52:04;100910.72;;;6.84;90.99
21129;BME280;10722;51.910;8.352;2023-12-14T12:54:51;100890.63;;;7.24;89.66
21129;BME280;10722;51.910;8.352;2023-12-14T12:57:36;100863.19;;;7.51;88.45
21129;BME280;10722;51.910;8.352;2023-12-14T13:00:22;100824.56;;;7.51;86.68
21129;BME280;10722;51.910;8.352;2023-12-14T13:03:07;100769.25;;;7.10;85.27
21129;BME280;10722;51.910;8.352;2023-12-14T13:05:53;100758.41;;;6.93;85.02
21129;BME280;10722;51.910;8.352;2023-12-14T13:08:38;100807.66;;;6.80;86.61
21129;BME280;10722;51.910;8.352;2023-12-14T13:11:23;100828.84;;;6.72;86.54
21129;BME280;10722;51.910;8.352;2023-12-14T13:14:08;100827.16;;;6.49;86.54
21129;BME280;10722;51.910;8.352;2023-12-14T13:16:54;100851.34;;;6.54;86.81
21129;BME280;10722;51.910;8.352;2023-12-14T13:19:39;100860.19;;;6.38;87.05
21129;BME280;10722;51.910;8.352;2023-12-14T13:22:24;100889.28;;;6.37;87.97
21129;BME280;10722;51.910;8.352;2023-12-14T13:25:13;100874.97;;;6.21;87.24
21129;BME280;10722;51.910;8.352;2023-12-14T13:27:58;100911.34;;;6.32;87.87
21129;BME280;10722;51.910;8.352;2023-12-14T13:30:43;100926.13;;;6.38;88.29
21129;BME280;10722;51.910;8.352;2023-12-14T13:33:28;100934.59;;;6.35;88.21
21129;BME280;10722;51.910;8.352;2023-12-14T13:36:14;100943.06;;;6.33;88.32
21129;BME280;10722;51.910;8.352;2023-12-14T13:38:59;100954.50;;;6.41;88.62
21129;BME280;10722;51.910;8.352;2023-12-14T13:41:44;100956.31;;;6.43;88.39
21129;BME280;10722;51.910;8.352;2023-12-14T13:44:34;100949.38;;;6.41;87.76
21129;BME280;10722;51.910;8.352;2023-12-14T13:47:19;100951.59;;;6.32;88.27
21129;BME280;10722;51.910;8.352;2023-12-14T13:50:06;100972.69;;;6.45;88.42
21129;BME280;10722;51.910;8.352;2023-12-14T13:52:52;100983.66;;;6.41;88.33
21129;BME280;10722;51.910;8.352;2023-12-14T13:55:37;100998.84;;;6.35;88.46
21129;BME280;10722;51.910;8.352;2023-12-14T13:58:22;101005.84;;;6.17;89.09
21129;BME280;10722;51.910;8.352;2023-12-14T14:01:07;101031.56;;;6.18;89.49
21129;BME280;10722;51.910;8.352;2023-12-14T14:03:52;101051.19;;;6.16;89.77
21129;BME280;10722;51.910;8.352;2023-12-14T14:06:38;101054.25;;;6.07;89.90
21129;BME280;10722;51.910;8.352;2023-12-14T14:09:23;101057.78;;;5.90;90.02
21129;BME280;10722;51.910;8.352;2023-12-14T14:12:08;101066.06;;;5.83;90.24
21129;BME280;10722;51.910;8.352;2023-12-14T14:14:53;101077.22;;;5.83;90.32
21129;BME280;10722;51.910;8.352;2023-12-14T14:17:38;101084.94;;;5.64;90.34
21129;BME280;10722;51.910;8.352;2023-12-14T14:20:23;101100.69;;;5.72;90.80
21129;BME280;10722;51.910;8.352;2023-12-14T14:23:08;101124.03;;;5.78;91.47
21129;BME280;10722;51.910;8.352;2023-12-14T14:25:53;101140.94;;;5.73;91.59
21129;BME280;10722;51.910;8.352;2023-12-14T14:28:39;101151.06;;;5.70;92.01
21129;BME280;10722;51.910;8.352;2023-12-14T14:31:24;101158.03;;;5.72;92.63
21129;BME280;10722;51.910;8.352;2023-12-14T14:34:09;101162.34;;;5.73;92.57